Aeroporto :
LOGIN :

Iscrizione | Disclaimer

   EN    FR    IT 

 










Sommario :    VFR   VFR Marginale   IFR   IFR Intensivo   IFR Molto Intensivo
Visibilità : 
Base nubi : 
>= 8 km
>= 3000ft
5 / 8 km
1000 / 3000 ft
1500m / 5 km
500 / 1000 ft
800 / 1500m
200 / 500 ft
< 800m
< 200 ft
Simboli :   Temporali  Nebbia  Neve Forte  Precipitazioni Forti  Vento > 20 kt
SIGMETs :   Varie  Temporali  Ghiacco  Turbolenza  Onda orograficha  Ceneri Vulcaniche






- Altitudine del aeroporto : 19 ft
- Codice IATA : LCY


EGLC - London City

ULTIMO METAR :
  • 140250Z AUTO 34005KT 280V050 7000 OVC005 18/17 Q1012

METARs OBSOLETI :
  • 140220Z AUTO 36006KT 330V060 8000 OVC006 19/17 Q1012
  • 140150Z AUTO 04005KT 320V100 9000 BKN006 OVC009 19/17 Q1013
  • 140120Z AUTO VRB05KT 8000 OVC006 19/17 Q1013
  • 140050Z AUTO 04006KT 310V100 9999 OVC006 19/17 Q1013
  • 140020Z AUTO 01005KT 340V040 9999 OVC007/// //////CB 19/17 Q1013

TAF TAF EGLC
Valido dal 14 a 03 ore il 14 a 12 ore UTC


140157Z 1403/1412 01004KT 9999 BKN007
PROB40 1403/1406 7000
PROB30
TEMPO 1403/1412 VRB15G25KT 3000 +TSRAGS
BECMG 1406/1409 BKN010
BECMG 1409/1412 SCT020
ATIS : +44 20 7646 0224



MetMap, La meteo Aeronautica in un colpo d'occhio ! - Copyright ORBIFLY Dicembre 2007 - Disclaimer

ORBIFLY MET'MAP TEAM :

Programmazione e sviluppo : Alexandra Zaïnal
Concezione : Baudouin d'Aumeries
Aiuto per la programmazione : Marc-Olivier Méhu
Supporto tecnico e logistico : Manuel Goepfert
Aiuto per la traduzione : Arnaldo La Scala

Contatto : metmap@orbifly.com




FONTI E CREDITI :

   NOAA